createdAt,value
2022-08-02T00:01:45.871Z,100.00
2022-08-02T00:04:15.239Z,100.00
2022-08-02T00:06:43.211Z,100.00
2022-08-02T00:09:11.287Z,100.00
2022-08-02T00:11:39.258Z,100.00
2022-08-02T00:14:11.453Z,100.00
2022-08-02T00:16:39.505Z,100.00
2022-08-02T00:19:07.508Z,100.00
2022-08-02T00:21:36.806Z,100.00
2022-08-02T00:24:29.572Z,100.00
2022-08-02T00:26:53.322Z,100.00
2022-08-02T00:29:21.229Z,100.00
2022-08-02T00:31:49.144Z,100.00
2022-08-02T00:34:28.619Z,100.00
2022-08-02T00:37:00.468Z,100.00
2022-08-02T00:39:33.473Z,100.00
2022-08-02T00:42:03.659Z,100.00
2022-08-02T00:44:31.890Z,100.00
2022-08-02T00:46:59.832Z,100.00
2022-08-02T00:49:28.230Z,100.00
2022-08-02T00:51:56.295Z,100.00
2022-08-02T00:54:25.574Z,100.00
2022-08-02T00:56:53.475Z,100.00
2022-08-02T00:59:21.447Z,100.00
2022-08-02T01:01:57.411Z,100.00
2022-08-02T01:04:31.340Z,100.00
2022-08-02T01:07:00.750Z,100.00
2022-08-02T01:09:30.060Z,100.00
2022-08-02T01:11:57.966Z,100.00
2022-08-02T01:14:31.147Z,100.00
2022-08-02T01:17:07.864Z,100.00
2022-08-02T01:19:43.481Z,100.00
2022-08-02T01:23:02.908Z,100.00
2022-08-02T01:25:51.512Z,100.00
2022-08-02T01:28:37.260Z,100.00
2022-08-02T01:31:13.802Z,100.00
2022-08-02T01:33:46.883Z,100.00
2022-08-02T01:36:18.770Z,100.00
2022-08-02T01:38:50.821Z,100.00
2022-08-02T01:41:21.471Z,100.00
2022-08-02T01:43:55.058Z,100.00
2022-08-02T01:46:24.266Z,100.00
2022-08-02T01:48:54.435Z,100.00
2022-08-02T01:51:45.252Z,100.00
2022-08-02T01:54:17.175Z,100.00
2022-08-02T01:56:46.673Z,100.00
2022-08-02T01:59:19.858Z,100.00
2022-08-02T02:01:50.508Z,100.00
2022-08-02T02:04:19.185Z,100.00
2022-08-02T02:06:48.836Z,100.00
2022-08-02T02:09:17.571Z,100.00
2022-08-02T02:12:06.215Z,100.00
2022-08-02T02:14:38.521Z,100.00
2022-08-02T02:17:08.122Z,100.00
2022-08-02T02:19:59.019Z,100.00
2022-08-02T02:22:27.134Z,100.00
2022-08-02T02:24:55.659Z,100.00
2022-08-02T02:27:24.922Z,100.00
2022-08-02T02:29:55.518Z,100.00
2022-08-02T02:32:28.805Z,100.00
2022-08-02T02:34:57.971Z,100.00
2022-08-02T02:37:29.078Z,100.00
2022-08-02T02:39:58.546Z,100.00
2022-08-02T02:42:31.422Z,100.00
2022-08-02T02:45:02.075Z,100.00
2022-08-02T02:47:41.115Z,100.00
2022-08-02T02:50:11.043Z,100.00
2022-08-02T02:52:40.902Z,100.00
2022-08-02T02:55:10.851Z,100.00
2022-08-02T02:57:39.716Z,100.00
2022-08-02T03:00:11.896Z,100.00
2022-08-02T03:02:41.168Z,100.00
2022-08-02T03:05:11.234Z,100.00
2022-08-02T03:07:39.972Z,100.00
2022-08-02T03:10:09.444Z,100.00
2022-08-02T03:12:37.875Z,100.00
2022-08-02T03:15:08.456Z,100.00
2022-08-02T03:17:42.503Z,100.00
2022-08-02T03:20:13.449Z,100.00
2022-08-02T03:22:41.714Z,100.00
2022-08-02T03:25:11.019Z,100.00
2022-08-02T03:27:39.017Z,100.00
2022-08-02T03:30:09.127Z,100.00
2022-08-02T03:32:38.083Z,100.00
2022-08-02T03:35:10.531Z,100.00
2022-08-02T03:37:39.088Z,100.00
2022-08-02T03:40:09.931Z,100.00
2022-08-02T03:42:38.644Z,100.00
2022-08-02T03:45:10.196Z,100.00
2022-08-02T03:47:40.632Z,100.00
2022-08-02T03:50:13.432Z,100.00
2022-08-02T03:52:43.573Z,100.00
2022-08-02T03:55:12.648Z,100.00
2022-08-02T03:57:41.525Z,100.00
2022-08-02T04:00:11.344Z,100.00
2022-08-02T04:02:39.275Z,100.00
2022-08-02T04:05:07.735Z,100.00
2022-08-02T04:08:32.823Z,100.00
2022-08-02T04:10:25.016Z,100.00
2022-08-02T04:12:53.352Z,100.00
2022-08-02T04:15:21.891Z,100.00
2022-08-02T04:17:54.171Z,100.00
2022-08-02T04:20:26.160Z,100.00
2022-08-02T04:23:01.585Z,100.00
2022-08-02T04:25:35.452Z,100.00
2022-08-02T04:28:17.614Z,100.00
2022-08-02T04:30:47.496Z,100.00
2022-08-02T04:33:16.171Z,100.00
2022-08-02T04:35:44.871Z,100.00
2022-08-02T04:38:16.472Z,100.00
2022-08-02T04:40:52.352Z,100.00
2022-08-02T04:43:20.928Z,100.00
2022-08-02T04:45:50.750Z,100.00
2022-08-02T04:48:18.735Z,100.00
2022-08-02T04:50:46.812Z,100.00
2022-08-02T04:53:16.287Z,100.00
2022-08-02T04:55:44.394Z,100.00
2022-08-02T04:58:38.255Z,100.00
2022-08-02T05:01:00.325Z,100.00
2022-08-02T05:03:28.246Z,100.00
2022-08-02T05:05:56.147Z,100.00
2022-08-02T05:08:25.445Z,100.00
2022-08-02T05:10:53.396Z,100.00
2022-08-02T05:13:21.380Z,100.00
2022-08-02T05:15:50.565Z,100.00
2022-08-02T05:18:18.852Z,100.00
2022-08-02T05:20:46.840Z,100.00
2022-08-02T05:23:14.790Z,100.00
2022-08-02T05:25:44.112Z,100.00
2022-08-02T05:28:12.086Z,100.00
2022-08-02T05:30:40.198Z,100.00
2022-08-02T05:33:08.552Z,100.00
2022-08-02T05:35:37.064Z,100.00
2022-08-02T05:38:05.160Z,100.00
2022-08-02T05:40:54.200Z,100.00
2022-08-02T05:43:24.402Z,100.00
2022-08-02T05:45:54.568Z,100.00
2022-08-02T05:48:26.393Z,100.00
2022-08-02T05:51:04.625Z,100.00
2022-08-02T05:53:40.023Z,100.00
2022-08-02T05:56:19.053Z,100.00
2022-08-02T05:58:54.199Z,100.00
2022-08-02T06:01:29.093Z,100.00
2022-08-02T06:04:00.196Z,100.00
2022-08-02T06:06:28.204Z,100.00
2022-08-02T06:09:01.215Z,100.00
2022-08-02T06:11:36.839Z,100.00
2022-08-02T06:14:07.838Z,100.00
2022-08-02T06:16:37.605Z,100.00
2022-08-02T06:19:12.582Z,100.00
2022-08-02T06:22:37.689Z,100.00
2022-08-02T06:24:31.868Z,100.00
2022-08-02T06:27:01.707Z,100.00
2022-08-02T06:29:37.001Z,100.00
2022-08-02T06:32:09.165Z,100.00
2022-08-02T06:34:40.207Z,100.00
2022-08-02T06:37:13.647Z,100.00
2022-08-02T06:39:48.712Z,100.00
2022-08-02T06:42:24.130Z,100.00
2022-08-02T06:44:58.120Z,100.00
2022-08-02T06:47:26.732Z,100.00
2022-08-02T06:49:55.136Z,100.00
2022-08-02T06:52:29.412Z,100.00
2022-08-02T06:54:59.592Z,100.00
2022-08-02T06:57:28.032Z,100.00
2022-08-02T06:59:58.457Z,100.00
2022-08-02T07:02:26.652Z,100.00
2022-08-02T07:04:55.663Z,100.00
2022-08-02T07:07:23.695Z,100.00
2022-08-02T07:09:56.239Z,100.00
2022-08-02T07:12:29.501Z,100.00
2022-08-02T07:14:59.232Z,100.00
2022-08-02T07:17:27.344Z,100.00
2022-08-02T07:19:55.251Z,100.00
2022-08-02T07:22:24.636Z,100.00
2022-08-02T07:24:53.006Z,100.00
2022-08-02T07:27:21.772Z,100.00
2022-08-02T07:29:49.845Z,100.00
2022-08-02T07:32:20.003Z,100.00
2022-08-02T07:34:50.587Z,100.00
2022-08-02T07:37:35.015Z,98.19
2022-08-02T07:40:14.166Z,97.88
2022-08-02T07:42:43.243Z,98.83
2022-08-02T07:45:12.624Z,97.03
2022-08-02T07:47:43.122Z,97.33
2022-08-02T07:50:12.235Z,90.95
2022-08-02T07:52:40.870Z,100.00
2022-08-02T07:55:09.698Z,97.99
2022-08-02T07:57:42.481Z,96.67
2022-08-02T08:00:16.239Z,93.44
2022-08-02T08:02:46.343Z,94.85
2022-08-02T08:05:15.281Z,94.07
2022-08-02T08:07:43.260Z,91.78
2022-08-02T08:10:11.896Z,93.03
2022-08-02T08:12:39.811Z,93.25
2022-08-02T08:15:08.409Z,90.36
2022-08-02T08:17:36.348Z,93.22
2022-08-02T08:20:07.042Z,91.84
2022-08-02T08:22:35.189Z,89.54
2022-08-02T08:25:03.227Z,90.23
2022-08-02T08:27:32.289Z,87.59
2022-08-02T08:30:00.389Z,87.56
2022-08-02T08:32:28.270Z,87.07
2022-08-02T08:34:56.220Z,86.61
2022-08-02T08:37:25.593Z,86.35
2022-08-02T08:39:58.286Z,85.56
2022-08-02T08:42:28.108Z,84.34
2022-08-02T08:44:57.795Z,83.33
2022-08-02T08:47:33.615Z,78.59
2022-08-02T08:50:05.104Z,86.15
2022-08-02T08:52:37.933Z,82.47
2022-08-02T08:55:09.167Z,85.30
2022-08-02T08:57:41.699Z,87.65
2022-08-02T09:00:10.865Z,84.33
2022-08-02T09:02:38.790Z,84.00
2022-08-02T09:05:08.354Z,85.19
2022-08-02T09:07:37.679Z,82.10
2022-08-02T09:10:33.246Z,77.98
2022-08-02T09:13:37.859Z,78.83
2022-08-02T09:16:13.009Z,79.91
2022-08-02T09:18:44.762Z,80.34
2022-08-02T09:21:13.682Z,80.32
2022-08-02T09:23:45.685Z,79.03
2022-08-02T09:26:15.502Z,79.15
2022-08-02T09:28:47.419Z,79.66
2022-08-02T09:31:18.158Z,79.90
2022-08-02T09:33:51.916Z,79.11
2022-08-02T09:36:19.975Z,80.96
2022-08-02T09:38:57.431Z,81.44
2022-08-02T09:41:28.392Z,80.83
2022-08-02T09:44:05.087Z,79.25
2022-08-02T09:46:37.680Z,78.96
2022-08-02T09:49:09.342Z,76.05
2022-08-02T09:51:39.320Z,74.49
2022-08-02T09:54:12.022Z,74.18
2022-08-02T09:56:47.708Z,73.06
2022-08-02T09:59:16.983Z,74.11
2022-08-02T10:01:51.059Z,75.04
2022-08-02T10:04:30.466Z,74.62
2022-08-02T10:06:59.675Z,75.59
2022-08-02T10:09:29.850Z,73.96
2022-08-02T10:11:58.782Z,75.22
2022-08-02T10:14:27.754Z,75.01
2022-08-02T10:16:57.814Z,74.99
2022-08-02T10:20:02.213Z,74.59
2022-08-02T10:22:19.760Z,74.44
2022-08-02T10:24:50.473Z,75.48
2022-08-02T10:27:21.053Z,75.52
2022-08-02T10:29:54.236Z,74.44
2022-08-02T10:32:27.998Z,72.60
2022-08-02T10:35:18.808Z,75.25
2022-08-02T10:37:51.845Z,74.85
2022-08-02T10:40:24.455Z,75.84
2022-08-02T10:42:55.064Z,75.14
2022-08-02T10:45:24.164Z,76.32
2022-08-02T10:48:03.588Z,74.19
2022-08-02T10:50:53.707Z,74.83
2022-08-02T10:53:26.910Z,76.00
2022-08-02T10:55:58.080Z,76.00
2022-08-02T10:58:30.296Z,75.83
2022-08-02T11:00:59.529Z,74.23
2022-08-02T11:03:42.249Z,73.04
2022-08-02T11:06:25.691Z,74.25
2022-08-02T11:09:32.007Z,73.82
2022-08-02T11:12:04.730Z,75.34
2022-08-02T11:14:35.147Z,74.27
2022-08-02T11:17:15.175Z,73.33
2022-08-02T11:20:18.037Z,74.07
2022-08-02T11:22:48.139Z,75.25
2022-08-02T11:26:00.887Z,69.02
2022-08-02T11:28:25.051Z,73.39
2022-08-02T11:31:03.081Z,71.77
2022-08-02T11:33:36.096Z,72.63
2022-08-02T11:36:07.559Z,73.23
2022-08-02T11:38:35.771Z,72.30
2022-08-02T11:41:09.588Z,73.39
2022-08-02T11:43:39.919Z,72.74
2022-08-02T11:46:15.154Z,71.51
2022-08-02T11:48:45.142Z,71.23
2022-08-02T11:51:14.611Z,70.96
2022-08-02T11:53:47.351Z,70.18
2022-08-02T11:56:21.888Z,72.79
2022-08-02T11:59:05.871Z,70.55
2022-08-02T12:01:35.234Z,70.71
2022-08-02T12:04:13.440Z,71.92
2022-08-02T12:06:41.456Z,71.51
2022-08-02T12:09:17.970Z,70.72
2022-08-02T12:11:50.443Z,71.42
2022-08-02T12:14:19.915Z,71.71
2022-08-02T12:17:06.266Z,70.77
2022-08-02T12:19:34.543Z,70.32
2022-08-02T12:22:11.076Z,69.10
2022-08-02T12:24:40.348Z,69.47
2022-08-02T12:27:09.022Z,70.63
2022-08-02T12:29:57.916Z,68.67
2022-08-02T12:32:27.463Z,69.92
2022-08-02T12:35:08.040Z,67.96
2022-08-02T12:37:36.303Z,64.01
2022-08-02T12:40:26.099Z,69.11
2022-08-02T12:42:57.397Z,68.83
2022-08-02T12:45:38.351Z,68.31
2022-08-02T12:48:09.570Z,68.28
2022-08-02T12:50:38.500Z,68.85
2022-08-02T12:53:08.592Z,67.31
2022-08-02T12:56:01.999Z,69.26
2022-08-02T12:58:28.929Z,69.26
2022-08-02T13:01:00.688Z,68.62
2022-08-02T13:04:10.269Z,69.91
2022-08-02T13:06:41.320Z,69.57
2022-08-02T13:09:13.795Z,70.00
2022-08-02T13:11:43.436Z,69.17
2022-08-02T13:14:12.140Z,69.56
2022-08-02T13:16:42.439Z,69.74
2022-08-02T13:19:10.607Z,69.81
2022-08-02T13:21:41.468Z,67.24
2022-08-02T13:24:38.842Z,68.21
2022-08-02T13:27:14.369Z,68.51
2022-08-02T13:29:42.234Z,67.42
2022-08-02T13:32:11.966Z,68.17
2022-08-02T13:34:40.402Z,67.63
2022-08-02T13:37:08.340Z,68.84
2022-08-02T13:39:36.217Z,68.61
2022-08-02T13:42:04.247Z,68.68
2022-08-02T13:44:34.040Z,69.66
2022-08-02T13:47:02.549Z,69.29
2022-08-02T13:49:51.290Z,69.80
2022-08-02T13:52:19.885Z,70.58
2022-08-02T13:54:47.827Z,70.92
2022-08-02T13:57:15.782Z,70.85
2022-08-02T13:59:55.828Z,70.11
2022-08-02T14:02:26.152Z,70.16
2022-08-02T14:04:55.567Z,69.81
2022-08-02T14:07:23.480Z,67.49
2022-08-02T14:09:51.500Z,67.43
2022-08-02T14:12:20.386Z,66.72
2022-08-02T14:14:48.306Z,66.14
2022-08-02T14:17:18.819Z,65.75
2022-08-02T14:19:47.039Z,64.67
2022-08-02T14:22:16.482Z,64.11
2022-08-02T14:24:45.037Z,64.44
2022-08-02T14:27:13.554Z,64.34
2022-08-02T14:29:41.571Z,63.79
2022-08-02T14:32:10.210Z,63.57
2022-08-02T14:34:38.363Z,62.94
2022-08-02T14:37:06.291Z,62.92
2022-08-02T14:39:42.951Z,61.52
2022-08-02T14:42:23.708Z,62.74
2022-08-02T14:44:51.640Z,61.77
2022-08-02T14:47:19.684Z,62.14
2022-08-02T14:49:50.258Z,62.69
2022-08-02T14:52:18.944Z,62.52
2022-08-02T14:54:48.460Z,63.04
2022-08-02T14:57:16.727Z,63.96
2022-08-02T14:59:44.716Z,64.29
2022-08-02T15:02:13.595Z,64.32
2022-08-02T15:04:43.149Z,64.39
2022-08-02T15:07:11.515Z,64.47
2022-08-02T15:09:40.053Z,64.53
2022-08-02T15:12:10.847Z,65.71
2022-08-02T15:14:39.245Z,65.67
2022-08-02T15:17:07.977Z,65.74
2022-08-02T15:19:58.188Z,66.30
2022-08-02T15:22:23.837Z,65.61
2022-08-02T15:24:52.063Z,66.37
2022-08-02T15:27:21.434Z,65.98
2022-08-02T15:29:49.567Z,67.27
2022-08-02T15:32:19.795Z,67.27
2022-08-02T15:34:47.859Z,67.66
2022-08-02T15:37:16.080Z,68.37
2022-08-02T15:39:44.176Z,68.55
2022-08-02T15:42:12.508Z,68.82
2022-08-02T15:44:42.155Z,68.07
2022-08-02T15:47:10.090Z,68.37
2022-08-02T15:49:41.390Z,67.85
2022-08-02T15:52:11.047Z,67.91
2022-08-02T15:54:39.431Z,67.88
2022-08-02T15:57:07.756Z,68.37
2022-08-02T15:59:35.737Z,68.27
2022-08-02T16:02:06.818Z,68.93
2022-08-02T16:04:34.912Z,69.34
2022-08-02T16:07:02.971Z,68.88
2022-08-02T16:09:30.898Z,69.98
2022-08-02T16:11:58.970Z,68.50
2022-08-02T16:14:26.977Z,68.38
2022-08-02T16:16:56.177Z,68.01
2022-08-02T16:19:38.790Z,68.58
2022-08-02T16:22:13.607Z,67.88
2022-08-02T16:24:41.820Z,68.54
2022-08-02T16:27:09.708Z,68.48
2022-08-02T16:29:37.748Z,68.48
2022-08-02T16:32:06.467Z,68.57
2022-08-02T16:35:04.068Z,69.21
2022-08-02T16:37:24.187Z,69.20
2022-08-02T16:39:52.265Z,68.12
2022-08-02T16:42:25.359Z,68.38
2022-08-02T16:44:54.895Z,68.77
2022-08-02T16:47:37.101Z,69.15
2022-08-02T16:50:12.910Z,68.07
2022-08-02T16:52:40.926Z,67.92
2022-08-02T16:55:11.125Z,68.51
2022-08-02T16:57:43.344Z,67.97
2022-08-02T17:00:15.650Z,68.23
2022-08-02T17:02:44.419Z,69.05
2022-08-02T17:05:16.597Z,68.72
2022-08-02T17:08:07.317Z,69.66
2022-08-02T17:10:34.271Z,68.86
2022-08-02T17:13:11.176Z,69.31
2022-08-02T17:16:16.133Z,69.46
2022-08-02T17:18:29.384Z,68.20
2022-08-02T17:20:59.054Z,67.67
2022-08-02T17:24:05.624Z,68.74
2022-08-02T17:26:15.325Z,68.44
2022-08-02T17:29:14.241Z,67.65
2022-08-02T17:31:42.090Z,69.18
2022-08-02T17:34:11.667Z,68.93
2022-08-02T17:36:41.147Z,69.69
2022-08-02T17:39:09.359Z,69.47
2022-08-02T17:41:49.023Z,69.05
2022-08-02T17:44:37.620Z,69.66
2022-08-02T17:47:06.588Z,69.16
2022-08-02T17:49:37.199Z,69.82
2022-08-02T17:52:48.040Z,69.79
2022-08-02T17:55:03.293Z,69.61
2022-08-02T17:57:57.903Z,70.35
2022-08-02T18:00:20.101Z,70.90
2022-08-02T18:02:54.899Z,70.78
2022-08-02T18:05:38.968Z,72.42
2022-08-02T18:08:10.119Z,72.63
2022-08-02T18:10:39.319Z,73.36
2022-08-02T18:13:07.260Z,74.01
2022-08-02T18:15:35.883Z,74.90
2022-08-02T18:18:03.972Z,75.67
2022-08-02T18:20:32.028Z,75.57
2022-08-02T18:23:00.326Z,76.88
2022-08-02T18:25:37.847Z,77.86
2022-08-02T18:28:15.130Z,78.40
2022-08-02T18:30:43.446Z,78.63
2022-08-02T18:33:56.892Z,79.06
2022-08-02T18:35:59.473Z,78.45
2022-08-02T18:38:30.250Z,79.40
2022-08-02T18:41:02.754Z,79.46
2022-08-02T18:43:34.588Z,79.09
2022-08-02T18:46:15.753Z,79.85
2022-08-02T18:48:46.498Z,80.22
2022-08-02T18:51:15.498Z,80.29
2022-08-02T18:53:43.947Z,80.35
2022-08-02T18:56:20.262Z,80.37
2022-08-02T18:58:53.199Z,79.93
2022-08-02T19:01:32.056Z,80.35
2022-08-02T19:04:02.538Z,80.37
2022-08-02T19:06:30.903Z,81.34
2022-08-02T19:09:03.551Z,80.89
2022-08-02T19:11:41.369Z,81.36
2022-08-02T19:14:24.187Z,82.07
2022-08-02T19:16:56.736Z,83.01
2022-08-02T19:19:29.151Z,83.02
2022-08-02T19:22:17.617Z,83.23
2022-08-02T19:24:47.177Z,83.18
2022-08-02T19:27:25.642Z,83.46
2022-08-02T19:29:54.887Z,84.25
2022-08-02T19:32:42.298Z,84.34
2022-08-02T19:35:19.526Z,84.87
2022-08-02T19:37:59.603Z,84.65
2022-08-02T19:40:29.098Z,85.09
2022-08-02T19:44:20.695Z,85.42
2022-08-02T19:45:50.567Z,85.27
2022-08-02T19:48:35.424Z,85.89
2022-08-02T19:51:07.627Z,84.92
2022-08-02T19:56:25.580Z,84.62
2022-08-02T19:58:57.939Z,84.52
2022-08-02T20:01:36.920Z,84.14
2022-08-02T20:04:13.393Z,83.86
2022-08-02T20:06:45.313Z,83.66
2022-08-02T20:09:16.432Z,84.14
2022-08-02T20:11:45.171Z,81.92
2022-08-02T20:14:14.518Z,83.54
2022-08-02T20:16:42.595Z,83.01
2022-08-02T20:19:14.120Z,83.26
2022-08-02T20:21:46.517Z,83.31
2022-08-02T20:24:21.140Z,83.96
2022-08-02T20:26:54.563Z,83.20
2022-08-02T20:29:42.912Z,83.45
2022-08-02T20:32:12.089Z,84.26
2022-08-02T20:34:40.056Z,84.59
2022-08-02T20:37:59.688Z,85.22
2022-08-02T20:39:55.951Z,84.63
2022-08-02T20:42:24.690Z,86.00
2022-08-02T20:44:55.119Z,86.53
2022-08-02T20:47:27.742Z,86.38
2022-08-02T20:50:30.704Z,86.42
2022-08-02T20:53:00.497Z,86.70
2022-08-02T20:55:31.280Z,86.89
2022-08-02T20:58:01.766Z,87.88
2022-08-02T21:00:32.507Z,89.24
2022-08-02T21:03:02.963Z,88.91
2022-08-02T21:05:54.673Z,90.12
2022-08-02T21:08:25.476Z,90.02
2022-08-02T21:10:55.505Z,91.72
2022-08-02T21:13:26.110Z,91.54
2022-08-02T21:16:00.796Z,92.67
2022-08-02T21:18:40.549Z,93.47
2022-08-02T21:21:09.746Z,93.54
2022-08-02T21:23:38.478Z,93.92
2022-08-02T21:26:25.714Z,95.13
2022-08-02T21:28:56.718Z,94.80
2022-08-02T21:31:29.721Z,95.78
2022-08-02T21:33:59.383Z,96.64
2022-08-02T21:36:30.588Z,99.11
2022-08-02T21:38:59.562Z,98.78
2022-08-02T21:41:38.473Z,98.50
2022-08-02T21:44:08.699Z,100.00
2022-08-02T21:46:38.039Z,98.60
2022-08-02T21:49:06.660Z,99.45
2022-08-02T21:51:34.644Z,100.00
2022-08-02T21:54:17.610Z,100.00
2022-08-02T21:56:48.227Z,100.00
2022-08-02T21:59:16.965Z,100.00
2022-08-02T22:01:52.304Z,100.00
2022-08-02T22:04:21.858Z,100.00
2022-08-02T22:06:49.799Z,100.00
2022-08-02T22:09:43.024Z,100.00
2022-08-02T22:12:09.809Z,100.00
2022-08-02T22:14:39.581Z,100.00
2022-08-02T22:17:13.728Z,100.00
2022-08-02T22:19:53.935Z,100.00
2022-08-02T22:22:28.126Z,100.00
2022-08-02T22:24:57.064Z,100.00
2022-08-02T22:28:36.627Z,100.00
2022-08-02T22:30:13.592Z,100.00
2022-08-02T22:33:01.191Z,100.00
2022-08-02T22:35:29.279Z,100.00
2022-08-02T22:38:15.039Z,100.00
2022-08-02T22:40:45.738Z,100.00
2022-08-02T22:43:22.661Z,100.00
2022-08-02T22:45:51.379Z,100.00
2022-08-02T22:48:20.908Z,100.00
2022-08-02T22:50:52.788Z,100.00
2022-08-02T22:53:35.340Z,100.00
2022-08-02T22:56:03.742Z,100.00
2022-08-02T22:58:32.694Z,100.00
2022-08-02T22:58:53.719Z,85.16
2022-08-02T23:01:01.114Z,100.00
2022-08-02T23:03:30.582Z,100.00
2022-08-02T23:05:58.682Z,100.00
2022-08-02T23:08:26.626Z,100.00
2022-08-02T23:10:54.563Z,100.00
2022-08-02T23:13:26.609Z,100.00
2022-08-02T23:16:13.743Z,100.00
2022-08-02T23:19:00.848Z,100.00
2022-08-02T23:21:45.740Z,100.00
2022-08-02T23:24:22.596Z,100.00
2022-08-02T23:26:50.612Z,100.00
2022-08-02T23:29:18.515Z,100.00
2022-08-02T23:31:46.418Z,100.00
2022-08-02T23:34:15.857Z,100.00
2022-08-02T23:36:43.796Z,100.00
2022-08-02T23:39:11.691Z,100.00
2022-08-02T23:41:39.692Z,100.00
2022-08-02T23:44:15.437Z,100.00
2022-08-02T23:46:44.540Z,100.00
2022-08-02T23:49:13.059Z,100.00
2022-08-02T23:51:42.430Z,100.00
2022-08-02T23:54:10.610Z,100.00
2022-08-02T23:56:39.225Z,100.00
2022-08-02T23:59:07.746Z,100.00
